createdAt,value
2018-05-03T00:01:05.276Z,58.30
2018-05-03T00:03:31.455Z,58.20
2018-05-03T00:05:57.655Z,58.20
2018-05-03T00:08:23.898Z,58.30
2018-05-03T00:10:50.089Z,58.40
2018-05-03T00:13:16.288Z,58.40
2018-05-03T00:15:42.483Z,58.40
2018-05-03T00:18:08.687Z,58.70
2018-05-03T00:20:34.888Z,58.50
2018-05-03T00:23:01.865Z,58.80
2018-05-03T00:25:28.779Z,59.10
2018-05-03T00:27:54.987Z,58.80
2018-05-03T00:30:21.275Z,58.70
2018-05-03T00:32:47.458Z,58.60
2018-05-03T00:35:15.156Z,58.50
2018-05-03T00:37:42.100Z,58.30
2018-05-03T00:40:09.019Z,58.10
2018-05-03T00:42:35.207Z,58.10
2018-05-03T00:45:01.381Z,57.80
2018-05-03T00:47:27.548Z,57.40
2018-05-03T00:49:53.726Z,56.70
2018-05-03T00:52:19.891Z,56.40
2018-05-03T00:54:46.820Z,56.30
2018-05-03T00:57:13.031Z,56.20
2018-05-03T00:59:39.226Z,56.20
2018-05-03T01:02:05.416Z,56.10
2018-05-03T01:04:32.374Z,56.20
2018-05-03T01:06:58.576Z,56.20
2018-05-03T01:09:24.814Z,56.20
2018-05-03T01:11:51.783Z,56.30
2018-05-03T01:14:17.979Z,56.30
2018-05-03T01:16:44.936Z,56.50
2018-05-03T01:19:11.860Z,56.50
2018-05-03T01:21:38.805Z,56.60
2018-05-03T01:24:05.793Z,56.60
2018-05-03T01:26:32.016Z,56.60
2018-05-03T01:28:58.228Z,56.60
2018-05-03T01:31:24.404Z,56.70
2018-05-03T01:33:50.604Z,56.70
2018-05-03T01:36:24.792Z,56.70
2018-05-03T01:38:50.998Z,56.80
2018-05-03T01:41:17.245Z,56.80
2018-05-03T01:43:43.408Z,56.80
2018-05-03T01:46:09.696Z,56.80
2018-05-03T01:48:35.887Z,56.90
2018-05-03T01:51:02.072Z,57.10
2018-05-03T01:53:28.262Z,57.00
2018-05-03T01:55:54.456Z,57.00
2018-05-03T01:58:20.636Z,57.10
2018-05-03T02:00:46.855Z,57.20
2018-05-03T02:03:13.803Z,57.40
2018-05-03T02:05:40.755Z,57.40
2018-05-03T02:08:06.988Z,57.40
2018-05-03T02:10:33.204Z,57.50
2018-05-03T02:12:59.396Z,57.50
2018-05-03T02:15:26.375Z,57.60
2018-05-03T02:17:53.307Z,57.50
2018-05-03T02:20:19.512Z,57.50
2018-05-03T02:22:46.510Z,57.50
2018-05-03T02:25:12.693Z,57.40
2018-05-03T02:27:38.915Z,57.50
2018-05-03T02:30:05.139Z,57.60
2018-05-03T02:32:31.356Z,57.70
2018-05-03T02:34:57.583Z,57.80
2018-05-03T02:37:23.777Z,57.70
2018-05-03T02:39:49.953Z,57.90
2018-05-03T02:42:16.175Z,57.80
2018-05-03T02:44:42.594Z,57.90
2018-05-03T02:47:08.781Z,58.00
2018-05-03T02:49:35.010Z,58.10
2018-05-03T02:52:01.197Z,58.00
2018-05-03T02:54:28.140Z,58.30
2018-05-03T02:57:06.660Z,59.00
2018-05-03T02:59:45.317Z,58.40
2018-05-03T03:02:25.125Z,58.50
2018-05-03T03:08:45.092Z,58.40
2018-05-03T03:11:29.942Z,58.80
2018-05-03T03:14:14.771Z,58.70
2018-05-03T03:17:00.385Z,59.10
2018-05-03T03:19:38.933Z,59.10
2018-05-03T03:22:23.901Z,59.30
2018-05-03T03:25:02.643Z,59.20
2018-05-03T03:27:48.159Z,59.50
2018-05-03T03:30:32.931Z,59.40
2018-05-03T03:33:11.676Z,59.50
2018-05-03T03:41:33.521Z,60.00
2018-05-03T03:44:12.089Z,59.30
2018-05-03T03:46:38.315Z,59.40
2018-05-03T03:49:04.502Z,60.30
2018-05-03T03:51:37.695Z,59.30
2018-05-03T03:54:03.907Z,59.60
2018-05-03T03:56:30.108Z,59.70
2018-05-03T03:58:57.117Z,59.90
2018-05-03T04:01:23.990Z,60.50
2018-05-03T04:03:50.233Z,60.00
2018-05-03T04:06:17.177Z,60.00
2018-05-03T04:08:44.104Z,60.00
2018-05-03T04:11:10.276Z,60.00
2018-05-03T04:13:43.363Z,60.00
2018-05-03T04:16:09.536Z,60.10
2018-05-03T04:18:48.133Z,60.20
2018-05-03T04:21:26.686Z,60.40
2018-05-03T04:24:14.008Z,60.30
2018-05-03T04:26:40.939Z,60.50
2018-05-03T04:29:07.147Z,60.50
2018-05-03T04:31:33.337Z,61.30
2018-05-03T04:33:59.532Z,60.80
2018-05-03T04:36:26.458Z,61.10
2018-05-03T04:38:52.676Z,61.10
2018-05-03T04:41:18.860Z,61.40
2018-05-03T04:43:45.044Z,61.40
2018-05-03T04:46:11.243Z,61.60
2018-05-03T04:48:37.424Z,61.50
2018-05-03T04:51:04.349Z,61.60
2018-05-03T04:53:31.288Z,62.00
2018-05-03T04:55:57.475Z,62.00
2018-05-03T04:58:23.643Z,62.10
2018-05-03T05:00:49.844Z,62.30
2018-05-03T05:03:16.011Z,62.40
2018-05-03T05:05:42.276Z,62.40
2018-05-03T05:08:08.415Z,62.60
2018-05-03T05:10:34.696Z,62.60
2018-05-03T05:13:00.815Z,62.80
2018-05-03T05:15:27.003Z,62.90
2018-05-03T05:17:53.253Z,63.10
2018-05-03T05:20:19.409Z,63.00
2018-05-03T05:22:46.337Z,63.00
2018-05-03T05:25:12.551Z,63.00
2018-05-03T05:27:38.727Z,62.90
2018-05-03T05:30:05.672Z,63.20
2018-05-03T05:32:31.850Z,63.00
2018-05-03T05:34:58.091Z,63.20
2018-05-03T05:37:24.283Z,63.00
2018-05-03T05:39:50.497Z,63.10
2018-05-03T05:42:16.686Z,63.30
2018-05-03T05:44:42.876Z,63.60
2018-05-03T05:47:09.078Z,64.60
2018-05-03T05:49:35.256Z,64.00
2018-05-03T05:52:02.230Z,64.60
2018-05-03T05:54:29.145Z,65.00
2018-05-03T05:56:56.084Z,65.20
2018-05-03T05:59:22.287Z,65.30
2018-05-03T06:01:48.449Z,65.50
2018-05-03T06:04:15.409Z,67.00
2018-05-03T06:06:41.578Z,66.20
2018-05-03T06:09:07.751Z,66.70
2018-05-03T06:11:34.681Z,67.20
2018-05-03T06:14:00.883Z,67.00
2018-05-03T06:16:27.044Z,67.80
2018-05-03T06:18:53.208Z,68.90
2018-05-03T06:21:19.387Z,69.20
2018-05-03T06:23:45.547Z,69.40
2018-05-03T06:26:15.403Z,69.20
2018-05-03T06:28:41.601Z,69.00
2018-05-03T06:31:07.779Z,68.00
2018-05-03T06:33:33.953Z,67.30
2018-05-03T06:36:00.166Z,66.60
2018-05-03T06:38:27.468Z,65.20
2018-05-03T06:40:53.639Z,65.50
2018-05-03T06:43:20.580Z,65.50
2018-05-03T06:45:47.508Z,65.00
2018-05-03T06:48:15.144Z,61.90
2018-05-03T06:50:41.339Z,61.80
2018-05-03T06:53:07.512Z,58.70
2018-05-03T06:55:33.675Z,57.10
2018-05-03T06:58:00.624Z,54.50
2018-05-03T07:00:27.543Z,55.80
2018-05-03T07:02:53.716Z,55.70
2018-05-03T07:05:19.916Z,55.40
2018-05-03T07:07:46.857Z,55.70
2018-05-03T07:10:13.776Z,54.10
2018-05-03T07:12:39.968Z,54.00
2018-05-03T07:15:06.147Z,53.60
2018-05-03T07:17:32.324Z,51.70
2018-05-03T07:20:05.309Z,50.20
2018-05-03T07:22:31.516Z,50.10
2018-05-03T07:24:58.432Z,50.30
2018-05-03T07:27:24.621Z,50.20
2018-05-03T07:29:50.779Z,50.00
2018-05-03T07:32:16.957Z,51.10
2018-05-03T07:34:43.224Z,51.60
2018-05-03T07:37:09.319Z,51.60
2018-05-03T07:39:35.527Z,52.20
2018-05-03T07:42:01.724Z,52.50
2018-05-03T07:44:27.903Z,53.20
2018-05-03T07:46:54.079Z,50.80
2018-05-03T07:49:21.006Z,51.70
2018-05-03T07:51:47.210Z,51.40
2018-05-03T07:54:13.380Z,51.30
2018-05-03T07:56:39.657Z,51.80
2018-05-03T07:59:07.263Z,52.50
2018-05-03T08:01:33.455Z,52.40
2018-05-03T08:03:59.667Z,51.00
2018-05-03T08:06:25.863Z,50.70
2018-05-03T08:08:52.803Z,51.40
2018-05-03T08:11:19.716Z,50.90
2018-05-03T08:13:45.928Z,51.20
2018-05-03T08:16:12.126Z,49.10
2018-05-03T08:18:39.083Z,47.90
2018-05-03T08:21:06.088Z,48.60
2018-05-03T08:23:33.004Z,47.90
2018-05-03T08:25:59.200Z,47.70
2018-05-03T08:28:25.387Z,48.70
2018-05-03T08:30:52.315Z,47.40
2018-05-03T08:33:18.662Z,47.20
2018-05-03T08:35:45.103Z,48.90
2018-05-03T08:38:12.015Z,45.20
2018-05-03T08:40:38.219Z,45.10
2018-05-03T08:43:04.404Z,45.10
2018-05-03T08:45:31.330Z,42.80
2018-05-03T08:47:58.263Z,45.70
2018-05-03T08:50:24.459Z,45.60
2018-05-03T08:52:50.694Z,46.70
2018-05-03T08:55:16.955Z,44.80
2018-05-03T08:57:43.891Z,44.40
2018-05-03T09:00:10.063Z,44.30
2018-05-03T09:02:36.248Z,44.70
2018-05-03T09:05:03.983Z,45.90
2018-05-03T09:07:30.191Z,45.20
2018-05-03T09:09:57.818Z,45.90
2018-05-03T09:12:24.051Z,45.80
2018-05-03T09:14:51.030Z,46.90
2018-05-03T09:17:17.238Z,46.70
2018-05-03T09:19:43.415Z,42.40
2018-05-03T09:22:09.609Z,44.40
2018-05-03T09:24:35.796Z,43.30
2018-05-03T09:27:01.979Z,42.70
2018-05-03T09:29:28.155Z,42.40
2018-05-03T09:31:54.383Z,44.00
2018-05-03T09:34:20.585Z,45.30
2018-05-03T09:36:46.804Z,45.90
2018-05-03T09:39:13.047Z,46.00
2018-05-03T09:41:39.233Z,45.20
2018-05-03T09:44:05.415Z,41.90
2018-05-03T09:46:31.625Z,41.50
2018-05-03T09:48:57.816Z,42.80
2018-05-03T09:51:23.988Z,44.80
2018-05-03T09:53:50.177Z,45.90
2018-05-03T09:56:16.347Z,45.70
2018-05-03T09:58:43.278Z,45.30
2018-05-03T10:01:09.490Z,45.10
2018-05-03T10:03:35.691Z,42.50
2018-05-03T10:06:01.867Z,42.10
2018-05-03T10:08:28.067Z,42.50
2018-05-03T10:10:54.300Z,43.00
2018-05-03T10:13:20.542Z,43.70
2018-05-03T10:15:46.776Z,44.00
2018-05-03T10:18:13.771Z,43.60
2018-05-03T10:20:40.748Z,44.00
2018-05-03T10:23:07.032Z,43.80
2018-05-03T10:25:33.242Z,44.80
2018-05-03T10:28:00.203Z,45.30
2018-05-03T10:30:27.131Z,44.10
2018-05-03T10:32:53.297Z,44.00
2018-05-03T10:35:19.479Z,44.70
2018-05-03T10:37:46.431Z,43.80
2018-05-03T10:40:13.347Z,43.60
2018-05-03T10:42:39.523Z,43.60
2018-05-03T10:45:05.742Z,40.40
2018-05-03T10:47:32.684Z,40.20
2018-05-03T10:49:59.628Z,41.70
2018-05-03T10:52:26.571Z,42.80
2018-05-03T10:54:53.507Z,42.60
2018-05-03T10:57:20.440Z,42.70
2018-05-03T10:59:46.629Z,42.50
2018-05-03T11:02:12.809Z,39.00
2018-05-03T11:04:38.975Z,39.20
2018-05-03T11:07:05.169Z,41.10
2018-05-03T11:09:32.121Z,41.30
2018-05-03T11:14:31.945Z,40.40
2018-05-03T11:16:58.131Z,40.90
2018-05-03T11:19:24.313Z,41.20
2018-05-03T11:21:50.563Z,41.40
2018-05-03T11:24:16.728Z,39.90
2018-05-03T11:26:42.928Z,39.40
2018-05-03T11:29:09.114Z,39.70
2018-05-03T11:31:36.076Z,40.10
2018-05-03T11:34:02.320Z,40.00
2018-05-03T11:36:28.519Z,38.40
2018-05-03T11:38:54.719Z,39.70
2018-05-03T11:41:20.911Z,39.50
2018-05-03T11:43:54.243Z,39.10
2018-05-03T11:46:20.409Z,40.50
2018-05-03T11:48:47.411Z,38.50
2018-05-03T11:51:13.534Z,38.40
2018-05-03T11:53:39.712Z,37.80
2018-05-03T11:56:05.896Z,37.10
2018-05-03T11:58:32.100Z,34.10
2018-05-03T12:00:58.279Z,34.60
2018-05-03T12:03:25.220Z,38.60
2018-05-03T12:05:51.430Z,38.50
2018-05-03T12:08:17.629Z,39.70
2018-05-03T12:10:43.832Z,39.20
2018-05-03T12:13:10.033Z,37.80
2018-05-03T12:15:36.959Z,40.40
2018-05-03T12:18:03.180Z,40.30
2018-05-03T12:20:29.355Z,40.40
2018-05-03T12:22:55.697Z,39.40
2018-05-03T12:25:21.907Z,38.70
2018-05-03T12:27:48.082Z,36.90
2018-05-03T12:30:14.265Z,37.60
2018-05-03T12:32:40.448Z,35.80
2018-05-03T12:35:06.632Z,38.30
2018-05-03T12:37:32.820Z,38.00
2018-05-03T12:39:59.764Z,39.80
2018-05-03T12:42:26.687Z,37.20
2018-05-03T12:44:52.867Z,37.10
2018-05-03T12:47:19.059Z,37.80
2018-05-03T12:49:45.973Z,39.80
2018-05-03T12:52:12.164Z,39.80
2018-05-03T12:54:38.357Z,37.00
2018-05-03T12:57:04.574Z,36.40
2018-05-03T12:59:30.778Z,38.60
2018-05-03T13:01:57.025Z,37.90
2018-05-03T13:04:23.216Z,38.90
2018-05-03T13:06:49.412Z,38.40
2018-05-03T13:09:15.624Z,38.50
2018-05-03T13:11:42.560Z,35.10
2018-05-03T13:14:09.516Z,34.50
2018-05-03T13:16:36.436Z,35.00
2018-05-03T13:19:02.672Z,34.90
2018-05-03T13:21:28.876Z,32.10
2018-05-03T13:23:55.099Z,30.70
2018-05-03T13:26:21.323Z,32.40
2018-05-03T13:28:47.532Z,33.30
2018-05-03T13:31:13.717Z,34.00
2018-05-03T13:33:39.890Z,32.10
2018-05-03T13:36:06.074Z,33.20
2018-05-03T13:38:39.109Z,34.10
2018-05-03T13:41:05.321Z,34.80
2018-05-03T13:43:31.519Z,34.60
2018-05-03T13:45:58.467Z,36.60
2018-05-03T13:48:25.408Z,37.50
2018-05-03T13:50:51.610Z,37.50
2018-05-03T13:53:17.873Z,38.80
2018-05-03T13:55:44.013Z,38.80
2018-05-03T13:58:10.950Z,39.00
2018-05-03T14:00:37.893Z,38.50
2018-05-03T14:03:04.831Z,37.20
2018-05-03T14:05:31.805Z,35.00
2018-05-03T14:07:58.001Z,34.90
2018-05-03T14:10:24.184Z,34.60
2018-05-03T14:12:50.367Z,34.30
2018-05-03T14:15:17.282Z,34.10
2018-05-03T14:17:43.468Z,33.90
2018-05-03T14:20:09.678Z,35.50
2018-05-03T14:22:36.613Z,34.10
2018-05-03T14:25:03.544Z,34.40
2018-05-03T14:27:29.755Z,34.30
2018-05-03T14:29:55.923Z,32.70
2018-05-03T14:32:22.858Z,32.50
2018-05-03T14:34:49.040Z,32.50
2018-05-03T14:37:15.236Z,32.00
2018-05-03T14:39:41.420Z,33.20
2018-05-03T14:42:07.623Z,34.20
2018-05-03T14:44:33.801Z,33.70
2018-05-03T14:47:00.022Z,33.20
2018-05-03T14:49:26.304Z,33.10
2018-05-03T14:51:52.494Z,32.70
2018-05-03T14:54:18.672Z,34.40
2018-05-03T14:56:44.855Z,35.20
2018-05-03T14:59:11.048Z,33.80
2018-05-03T15:01:37.235Z,33.60
2018-05-03T15:04:03.426Z,33.70
2018-05-03T15:06:30.411Z,34.10
2018-05-03T15:08:57.292Z,33.40
2018-05-03T15:11:23.516Z,33.30
2018-05-03T15:13:49.756Z,33.40
2018-05-03T15:16:16.777Z,37.20
2018-05-03T15:18:42.872Z,37.20
2018-05-03T15:21:09.276Z,35.80
2018-05-03T15:23:35.451Z,36.90
2018-05-03T15:26:01.648Z,37.60
2018-05-03T15:28:27.839Z,37.90
2018-05-03T15:30:54.779Z,36.70
2018-05-03T15:33:20.995Z,36.60
2018-05-03T15:35:47.179Z,36.10
2018-05-03T15:38:13.358Z,33.60
2018-05-03T15:40:40.316Z,32.60
2018-05-03T15:43:06.523Z,32.50
2018-05-03T15:45:32.713Z,33.70
2018-05-03T15:47:58.920Z,34.50
2018-05-03T15:50:25.112Z,36.20
2018-05-03T15:52:52.061Z,37.20
2018-05-03T15:55:18.999Z,37.20
2018-05-03T15:57:45.955Z,34.40
2018-05-03T16:00:12.914Z,34.00
2018-05-03T16:02:39.123Z,33.90
2018-05-03T16:05:06.089Z,33.80
2018-05-03T16:07:40.065Z,33.90
2018-05-03T16:10:06.260Z,33.90
2018-05-03T16:12:32.447Z,33.90
2018-05-03T16:14:59.449Z,35.00
2018-05-03T16:17:25.676Z,34.80
2018-05-03T16:19:51.880Z,33.10
2018-05-03T16:22:18.060Z,33.90
2018-05-03T16:24:45.003Z,35.60
2018-05-03T16:27:11.239Z,35.50
2018-05-03T16:29:38.154Z,35.50
2018-05-03T16:32:04.379Z,36.00
2018-05-03T16:34:30.601Z,35.30
2018-05-03T16:36:56.800Z,35.60
2018-05-03T16:39:22.975Z,35.90
2018-05-03T16:41:49.188Z,36.00
2018-05-03T16:44:15.437Z,36.00
2018-05-03T16:46:42.411Z,36.20
2018-05-03T16:49:09.336Z,36.50
2018-05-03T16:51:36.277Z,36.60
2018-05-03T16:54:03.269Z,36.90
2018-05-03T16:56:29.490Z,36.80
2018-05-03T16:58:55.737Z,36.20
2018-05-03T17:01:21.944Z,35.40
2018-05-03T17:03:48.178Z,35.10
2018-05-03T17:06:14.364Z,34.20
2018-05-03T17:08:40.549Z,34.70
2018-05-03T17:11:06.773Z,35.20
2018-05-03T17:13:32.954Z,34.90
2018-05-03T17:15:59.904Z,35.10
2018-05-03T17:18:26.825Z,34.70
2018-05-03T17:20:53.004Z,34.60
2018-05-03T17:23:19.175Z,35.40
2018-05-03T17:25:45.378Z,36.30
2018-05-03T17:28:11.558Z,37.10
2018-05-03T17:30:37.759Z,37.50
2018-05-03T17:33:03.960Z,37.90
2018-05-03T17:35:30.139Z,38.00
2018-05-03T17:37:57.101Z,38.60
2018-05-03T17:40:23.299Z,38.50
2018-05-03T17:42:49.475Z,38.70
2018-05-03T17:45:15.653Z,38.30
2018-05-03T17:47:42.633Z,38.70
2018-05-03T17:50:08.819Z,38.60
2018-05-03T17:52:35.000Z,39.10
2018-05-03T17:55:01.209Z,39.30
2018-05-03T17:57:27.392Z,39.50
2018-05-03T17:59:53.570Z,39.60
2018-05-03T18:02:19.778Z,40.00
2018-05-03T18:04:46.150Z,40.70
2018-05-03T18:07:12.915Z,41.00
2018-05-03T18:09:39.111Z,41.10
2018-05-03T18:12:05.288Z,41.00
2018-05-03T18:14:32.212Z,41.00
2018-05-03T18:16:58.499Z,41.00
2018-05-03T18:19:24.711Z,40.60
2018-05-03T18:21:50.887Z,40.40
2018-05-03T18:24:17.132Z,40.30
2018-05-03T18:26:43.307Z,40.30
2018-05-03T18:29:09.504Z,40.10
2018-05-03T18:31:36.423Z,40.20
2018-05-03T18:34:04.092Z,40.00
2018-05-03T18:36:30.437Z,40.10
2018-05-03T18:38:56.648Z,40.70
2018-05-03T18:41:22.827Z,40.20
2018-05-03T18:43:49.185Z,40.80
2018-05-03T18:46:15.323Z,40.80
2018-05-03T18:48:41.488Z,41.10
2018-05-03T18:51:08.419Z,41.30
2018-05-03T18:53:34.611Z,41.20
2018-05-03T18:56:00.795Z,41.60
2018-05-03T18:58:26.994Z,41.60
2018-05-03T19:00:53.212Z,41.80
2018-05-03T19:03:19.400Z,41.90
2018-05-03T19:05:45.600Z,42.20
2018-05-03T19:08:12.552Z,42.60
2018-05-03T19:10:39.489Z,42.60
2018-05-03T19:13:06.480Z,42.60
2018-05-03T19:15:33.383Z,42.80
2018-05-03T19:18:00.384Z,43.00
2018-05-03T19:20:27.287Z,43.20
2018-05-03T19:22:53.472Z,43.10
2018-05-03T19:25:19.660Z,43.30
2018-05-03T19:27:45.836Z,43.40
2018-05-03T19:30:12.800Z,43.80
2018-05-03T19:32:39.713Z,43.50
2018-05-03T19:35:06.019Z,43.40
2018-05-03T19:37:32.892Z,43.20
2018-05-03T19:39:59.081Z,43.00
2018-05-03T19:42:25.295Z,42.90
2018-05-03T19:44:51.469Z,42.80
2018-05-03T19:47:17.632Z,42.80
2018-05-03T19:49:43.846Z,42.80
2018-05-03T19:52:10.751Z,42.70
2018-05-03T19:54:36.928Z,42.60
2018-05-03T19:57:03.136Z,42.60
2018-05-03T19:59:30.066Z,42.60
2018-05-03T20:01:56.324Z,42.50
2018-05-03T20:04:23.247Z,42.80
2018-05-03T20:06:49.453Z,42.80
2018-05-03T20:09:15.623Z,42.90
2018-05-03T20:11:49.420Z,43.00
2018-05-03T20:14:16.347Z,43.00
2018-05-03T20:16:42.536Z,42.90
2018-05-03T20:19:08.735Z,42.90
2018-05-03T20:21:35.664Z,43.20
2018-05-03T20:24:02.623Z,43.20
2018-05-03T20:26:29.699Z,43.20
2018-05-03T20:28:56.619Z,43.20
2018-05-03T20:31:22.796Z,43.10
2018-05-03T20:33:48.977Z,43.20
2018-05-03T20:36:15.166Z,43.50
2018-05-03T20:38:41.332Z,43.50
2018-05-03T20:41:07.771Z,43.50
2018-05-03T20:43:33.959Z,43.60
2018-05-03T20:46:01.738Z,43.60
2018-05-03T20:48:27.903Z,43.50
2018-05-03T20:50:54.103Z,43.70
2018-05-03T20:53:21.040Z,43.80
2018-05-03T20:55:47.980Z,44.00
2018-05-03T20:58:14.895Z,44.00
2018-05-03T21:00:41.099Z,44.00
2018-05-03T21:03:07.319Z,44.10
2018-05-03T21:05:33.505Z,44.20
2018-05-03T21:08:00.454Z,44.30
2018-05-03T21:10:27.360Z,43.90
2018-05-03T21:12:53.839Z,44.40
2018-05-03T21:15:20.858Z,44.70
2018-05-03T21:17:47.799Z,44.70
2018-05-03T21:20:13.969Z,44.60
2018-05-03T21:22:47.072Z,44.70
2018-05-03T21:25:13.240Z,44.90
2018-05-03T21:27:39.414Z,44.80
2018-05-03T21:30:05.611Z,44.80
2018-05-03T21:32:32.555Z,45.20
2018-05-03T21:34:59.486Z,45.20
2018-05-03T21:37:25.669Z,45.10
2018-05-03T21:39:51.836Z,45.20
2018-05-03T21:42:18.010Z,45.40
2018-05-03T21:44:44.187Z,45.50
2018-05-03T21:47:10.375Z,45.50
2018-05-03T21:49:36.569Z,45.60
2018-05-03T21:52:02.740Z,45.70
2018-05-03T21:54:28.907Z,46.70
2018-05-03T21:56:55.087Z,46.00
2018-05-03T21:59:21.279Z,46.10
2018-05-03T22:01:48.214Z,46.30
2018-05-03T22:04:15.169Z,46.40
2018-05-03T22:06:42.140Z,46.60
2018-05-03T22:09:08.353Z,46.60
2018-05-03T22:11:34.539Z,46.60
2018-05-03T22:14:00.757Z,46.50
2018-05-03T22:16:26.935Z,46.70
2018-05-03T22:18:53.864Z,47.20
2018-05-03T22:21:20.832Z,47.10
2018-05-03T22:23:47.011Z,47.10
2018-05-03T22:26:13.180Z,47.10
2018-05-03T22:28:39.377Z,47.30
2018-05-03T22:31:05.557Z,47.20
2018-05-03T22:33:31.736Z,47.30
2018-05-03T22:35:57.987Z,47.40
2018-05-03T22:38:24.328Z,47.60
2018-05-03T22:40:50.457Z,47.60
2018-05-03T22:43:16.652Z,47.60
2018-05-03T22:45:43.576Z,47.90
2018-05-03T22:48:09.769Z,47.90
2018-05-03T22:50:36.035Z,47.80
2018-05-03T22:53:02.211Z,47.90
2018-05-03T22:55:28.380Z,48.10
2018-05-03T22:57:54.580Z,48.30
2018-05-03T23:00:20.748Z,48.30
2018-05-03T23:02:46.921Z,48.50
2018-05-03T23:05:13.124Z,48.50
2018-05-03T23:07:39.311Z,48.70
2018-05-03T23:10:05.543Z,48.90
2018-05-03T23:12:31.745Z,48.90
2018-05-03T23:14:57.971Z,49.00
2018-05-03T23:17:24.139Z,49.10
2018-05-03T23:19:51.791Z,49.50
2018-05-03T23:22:17.958Z,49.50
2018-05-03T23:24:44.191Z,49.40
2018-05-03T23:27:10.365Z,49.50
2018-05-03T23:29:36.531Z,49.60
2018-05-03T23:32:03.520Z,49.70
2018-05-03T23:34:29.744Z,49.70
2018-05-03T23:36:55.973Z,49.70
2018-05-03T23:39:22.159Z,49.80
2018-05-03T23:41:49.075Z,50.00
2018-05-03T23:44:15.248Z,49.80
2018-05-03T23:46:41.411Z,49.80
2018-05-03T23:49:07.588Z,49.90
2018-05-03T23:51:33.770Z,49.90
2018-05-03T23:53:59.953Z,50.00
2018-05-03T23:56:26.123Z,50.20
2018-05-03T23:58:52.282Z,50.30
